createdAt,value
2023-04-09T00:03:13.877Z,101239.20
2023-04-09T00:08:16.751Z,101234.00
2023-04-09T00:13:25.480Z,101229.40
2023-04-09T00:18:38.835Z,101232.60
2023-04-09T00:23:42.467Z,101228.20
2023-04-09T00:28:45.473Z,101232.80
2023-04-09T00:33:48.986Z,101229.20
2023-04-09T00:38:54.217Z,101234.80
2023-04-09T00:43:57.687Z,101231.40
2023-04-09T00:49:00.786Z,101228.20
2023-04-09T00:54:03.823Z,101231.00
2023-04-09T00:59:06.852Z,101228.00
2023-04-09T01:04:10.462Z,101226.20
2023-04-09T01:09:36.106Z,101236.20
2023-04-09T01:14:51.668Z,101233.00
2023-04-09T01:20:04.992Z,101232.00
2023-04-09T01:25:38.184Z,101228.00
2023-04-09T01:30:52.809Z,101226.60
2023-04-09T01:35:58.022Z,101224.80
2023-04-09T01:41:04.176Z,101223.40
2023-04-09T01:46:08.272Z,101225.80
2023-04-09T01:51:14.133Z,101229.40
2023-04-09T01:56:16.965Z,101238.80
2023-04-09T02:01:32.550Z,101242.00
2023-04-09T02:06:46.540Z,101237.20
2023-04-09T02:11:51.168Z,101239.40
2023-04-09T02:16:54.237Z,101234.00
2023-04-09T02:21:57.069Z,101236.60
2023-04-09T02:27:00.101Z,101235.80
2023-04-09T02:32:03.114Z,101231.40
2023-04-09T02:37:06.125Z,101226.60
2023-04-09T02:42:08.944Z,101229.80
2023-04-09T02:47:11.901Z,101232.40
2023-04-09T02:52:14.760Z,101229.40
2023-04-09T02:57:17.629Z,101233.60
2023-04-09T03:02:20.750Z,101226.20
2023-04-09T03:07:23.910Z,101228.00
2023-04-09T03:12:26.804Z,101220.60
2023-04-09T03:17:32.071Z,101216.80
2023-04-09T03:22:39.997Z,101219.80
2023-04-09T03:27:42.902Z,101216.00
2023-04-09T03:32:45.895Z,101214.20
2023-04-09T03:37:48.721Z,101224.60
2023-04-09T03:42:51.563Z,101219.80
2023-04-09T03:47:56.173Z,101229.80
2023-04-09T03:53:01.604Z,101232.20
2023-04-09T03:58:04.597Z,101233.40
2023-04-09T04:03:07.719Z,101233.20
2023-04-09T04:08:10.733Z,101236.40
2023-04-09T04:13:13.586Z,101233.20
2023-04-09T04:18:16.537Z,101233.80
2023-04-09T04:23:19.453Z,101239.80
2023-04-09T04:28:22.331Z,101239.80
2023-04-09T04:33:25.255Z,101237.40
2023-04-09T04:38:28.073Z,101237.40
2023-04-09T04:43:31.368Z,101240.00
2023-04-09T04:48:34.337Z,101233.80
2023-04-09T04:53:37.290Z,101240.20
2023-04-09T04:58:40.242Z,101239.80
2023-04-09T05:03:43.329Z,101242.00
2023-04-09T05:08:46.400Z,101239.00
2023-04-09T05:13:49.235Z,101241.40
2023-04-09T05:18:52.283Z,101241.80
2023-04-09T05:23:55.885Z,101245.60
2023-04-09T05:28:58.773Z,101249.60
2023-04-09T05:34:01.747Z,101250.40
2023-04-09T05:39:04.643Z,101253.20
2023-04-09T05:44:07.735Z,101256.80
2023-04-09T05:49:10.812Z,101256.80
2023-04-09T05:54:13.713Z,101252.40
2023-04-09T05:59:17.316Z,101251.20
2023-04-09T06:04:20.952Z,101254.00
2023-04-09T06:09:24.122Z,101257.40
2023-04-09T06:14:27.060Z,101261.20
2023-04-09T06:19:30.049Z,101261.40
2023-04-09T06:24:33.552Z,101261.40
2023-04-09T06:29:36.369Z,101265.00
2023-04-09T06:34:39.230Z,101274.40
2023-04-09T06:39:47.644Z,101285.00
2023-04-09T06:45:01.252Z,101281.00
2023-04-09T06:50:04.972Z,101283.20
2023-04-09T06:55:08.697Z,101289.00
2023-04-09T07:00:12.525Z,101291.20
2023-04-09T07:05:15.564Z,101295.60
2023-04-09T07:10:18.619Z,101301.20
2023-04-09T07:15:21.524Z,101300.40
2023-04-09T07:20:24.584Z,101303.00
2023-04-09T07:25:28.463Z,101306.80
2023-04-09T07:30:31.848Z,101314.20
2023-04-09T07:35:35.035Z,101312.40
2023-04-09T07:40:38.124Z,101314.40
2023-04-09T07:45:40.978Z,101314.20
2023-04-09T07:50:45.339Z,101309.00
2023-04-09T07:55:51.525Z,101311.60
2023-04-09T08:00:54.391Z,101319.60
2023-04-09T08:05:57.758Z,101314.40
2023-04-09T08:11:00.771Z,101315.00
2023-04-09T08:16:04.132Z,101322.20
2023-04-09T08:21:07.257Z,101320.00
2023-04-09T08:26:10.443Z,101322.60
2023-04-09T08:31:13.584Z,101324.00
2023-04-09T08:36:16.785Z,101320.60
2023-04-09T08:41:22.348Z,101313.20
2023-04-09T08:46:26.588Z,101312.20
2023-04-09T08:51:29.688Z,101308.40
2023-04-09T08:56:32.653Z,101304.20
2023-04-09T09:01:35.737Z,101300.20
2023-04-09T09:06:41.697Z,101301.60
2023-04-09T09:11:48.553Z,101296.20
2023-04-09T09:16:57.908Z,101294.20
2023-04-09T09:22:06.121Z,101299.60
2023-04-09T09:27:09.008Z,101303.60
2023-04-09T09:32:14.920Z,101305.20
2023-04-09T09:37:29.421Z,101308.00
2023-04-09T09:42:33.107Z,101305.20
2023-04-09T09:47:38.619Z,101304.00
2023-04-09T09:52:47.645Z,101303.60
2023-04-09T09:57:55.142Z,101299.60
2023-04-09T10:03:15.268Z,101304.00
2023-04-09T10:08:21.634Z,101297.20
2023-04-09T10:13:41.486Z,101294.60
2023-04-09T10:18:46.542Z,101289.00
2023-04-09T10:23:52.927Z,101288.40
2023-04-09T10:29:16.490Z,101287.80
2023-04-09T10:34:31.146Z,101291.80
2023-04-09T10:39:44.486Z,101293.60
2023-04-09T10:45:14.927Z,101296.00
2023-04-09T10:50:26.751Z,101297.40
2023-04-09T10:55:42.201Z,101299.60
2023-04-09T11:00:51.090Z,101297.60
2023-04-09T11:06:06.520Z,101300.00
2023-04-09T11:11:09.498Z,101303.20
2023-04-09T11:16:13.405Z,101300.20
2023-04-09T11:21:29.594Z,101297.00
2023-04-09T11:26:37.175Z,101287.20
2023-04-09T11:31:45.441Z,101291.60
2023-04-09T11:36:54.087Z,101285.40
2023-04-09T11:41:59.479Z,101283.60
2023-04-09T11:47:03.577Z,101285.20
2023-04-09T11:52:07.516Z,101278.20
2023-04-09T11:57:10.978Z,101278.80
2023-04-09T12:02:19.460Z,101275.40
2023-04-09T12:07:22.550Z,101270.80
2023-04-09T12:12:25.710Z,101272.20
2023-04-09T12:17:28.593Z,101277.20
2023-04-09T12:22:31.550Z,101264.60
2023-04-09T12:27:34.413Z,101265.20
2023-04-09T12:32:37.496Z,101265.20
2023-04-09T12:37:40.501Z,101262.80
2023-04-09T12:42:45.565Z,101256.20
2023-04-09T12:47:49.419Z,101250.20
2023-04-09T12:52:52.394Z,101250.40
2023-04-09T12:57:55.461Z,101249.40
2023-04-09T13:02:58.518Z,101242.60
2023-04-09T13:08:08.317Z,101237.40
2023-04-09T13:13:14.396Z,101229.00
2023-04-09T13:18:17.233Z,101222.80
2023-04-09T13:23:20.096Z,101220.40
2023-04-09T13:28:23.027Z,101221.20
2023-04-09T13:33:25.990Z,101218.80
2023-04-09T13:38:28.900Z,101208.40
2023-04-09T13:43:31.891Z,101201.40
2023-04-09T13:48:34.811Z,101192.80
2023-04-09T13:53:37.623Z,101201.80
2023-04-09T13:58:40.666Z,101196.40
2023-04-09T14:03:43.594Z,101195.80
2023-04-09T14:08:46.570Z,101194.40
2023-04-09T14:13:49.510Z,101185.80
2023-04-09T14:18:52.647Z,101185.40
2023-04-09T14:23:56.228Z,101188.40
2023-04-09T14:28:59.221Z,101192.00
2023-04-09T14:34:02.468Z,101183.00
2023-04-09T14:39:05.382Z,101176.60
2023-04-09T14:44:08.295Z,101172.00
2023-04-09T14:49:11.145Z,101173.00
2023-04-09T14:54:14.064Z,101175.80
2023-04-09T14:59:17.155Z,101171.60
2023-04-09T15:04:20.089Z,101175.60
2023-04-09T15:09:23.044Z,101169.60
2023-04-09T15:14:30.762Z,101169.00
2023-04-09T15:19:33.627Z,101175.80
2023-04-09T15:24:36.419Z,101180.40
2023-04-09T15:29:39.381Z,101171.20
2023-04-09T15:34:42.216Z,101178.80
2023-04-09T15:39:45.064Z,101183.40
2023-04-09T15:44:49.010Z,101179.00
2023-04-09T15:49:51.924Z,101182.40
2023-04-09T15:54:54.722Z,101183.20
2023-04-09T15:59:57.601Z,101184.20
2023-04-09T16:05:00.562Z,101182.60
2023-04-09T16:10:04.710Z,101190.00
2023-04-09T16:15:09.254Z,101194.40
2023-04-09T16:20:12.404Z,101201.40
2023-04-09T16:25:15.387Z,101203.60
2023-04-09T16:30:18.336Z,101205.20
2023-04-09T16:35:21.359Z,101220.00
2023-04-09T16:40:24.586Z,101227.80
2023-04-09T16:45:28.430Z,101230.80
2023-04-09T16:50:31.513Z,101237.00
2023-04-09T16:55:35.166Z,101232.20
2023-04-09T17:00:40.106Z,101241.60
2023-04-09T17:05:49.418Z,101247.40
2023-04-09T17:10:54.913Z,101245.00
2023-04-09T17:15:58.423Z,101249.00
2023-04-09T17:21:01.320Z,101256.20
2023-04-09T17:26:04.534Z,101260.40
2023-04-09T17:31:15.963Z,101269.00
2023-04-09T17:36:20.438Z,101276.20
2023-04-09T17:41:24.188Z,101279.80
2023-04-09T17:46:27.129Z,101290.80
2023-04-09T17:51:30.178Z,101293.00
2023-04-09T17:56:35.674Z,101300.20
2023-04-09T18:01:38.680Z,101301.80
2023-04-09T18:06:41.673Z,101302.40
2023-04-09T18:11:45.502Z,101305.00
2023-04-09T18:16:48.785Z,101310.00
2023-04-09T18:21:51.664Z,101314.20
2023-04-09T18:26:54.560Z,101321.80
2023-04-09T18:31:58.394Z,101324.20
2023-04-09T18:37:01.471Z,101329.00
2023-04-09T18:42:04.763Z,101337.20
2023-04-09T18:47:09.368Z,101346.20
2023-04-09T18:52:12.459Z,101347.60
2023-04-09T18:57:15.653Z,101347.40
2023-04-09T19:02:18.700Z,101355.80
2023-04-09T19:07:22.254Z,101354.40
2023-04-09T19:12:27.133Z,101350.40
2023-04-09T19:17:30.211Z,101348.00
2023-04-09T19:22:33.193Z,101343.60
2023-04-09T19:27:36.126Z,101344.80
2023-04-09T19:32:39.678Z,101345.20
2023-04-09T19:37:42.773Z,101337.60
2023-04-09T19:42:45.975Z,101338.80
2023-04-09T19:47:48.932Z,101343.20
2023-04-09T19:52:54.284Z,101341.40
2023-04-09T19:57:57.302Z,101349.60
2023-04-09T20:03:01.267Z,101354.20
2023-04-09T20:08:04.923Z,101348.80
2023-04-09T20:13:08.927Z,101352.40
2023-04-09T20:18:12.232Z,101350.20
2023-04-09T20:23:15.525Z,101358.60
2023-04-09T20:28:18.421Z,101350.60
2023-04-09T20:33:21.401Z,101353.00
2023-04-09T20:38:24.601Z,101348.20
2023-04-09T20:43:27.498Z,101349.00
2023-04-09T20:48:31.587Z,101346.20
2023-04-09T20:53:34.676Z,101353.40
2023-04-09T20:58:37.548Z,101353.20
2023-04-09T21:03:40.739Z,101350.00
2023-04-09T21:08:44.286Z,101348.80
2023-04-09T21:13:54.568Z,101352.80
2023-04-09T21:18:58.503Z,101347.80
2023-04-09T21:24:01.569Z,101344.00
2023-04-09T21:29:04.479Z,101343.60
2023-04-09T21:34:07.560Z,101343.40
2023-04-09T21:39:10.815Z,101341.20
2023-04-09T21:44:13.782Z,101341.00
2023-04-09T21:49:16.689Z,101339.60
2023-04-09T21:54:19.481Z,101340.20
2023-04-09T21:59:22.319Z,101346.20
2023-04-09T22:04:25.218Z,101337.00
2023-04-09T22:09:28.056Z,101342.80
2023-04-09T22:14:32.691Z,101331.00
2023-04-09T22:19:35.824Z,101323.40
2023-04-09T22:24:39.435Z,101320.60
2023-04-09T22:29:42.445Z,101319.80
2023-04-09T22:34:45.462Z,101320.00
2023-04-09T22:39:48.868Z,101315.20
2023-04-09T22:44:51.816Z,101316.20
2023-04-09T22:49:54.971Z,101316.40
2023-04-09T22:54:57.853Z,101312.80
2023-04-09T23:00:00.844Z,101312.40
2023-04-09T23:05:04.127Z,101313.40
2023-04-09T23:10:08.438Z,101312.80
2023-04-09T23:15:11.722Z,101307.60
2023-04-09T23:20:16.261Z,101314.60
2023-04-09T23:25:20.365Z,101315.20
2023-04-09T23:30:24.544Z,101321.40
2023-04-09T23:35:27.504Z,101317.60
2023-04-09T23:40:30.449Z,101312.20
2023-04-09T23:45:33.326Z,101316.20
2023-04-09T23:50:41.052Z,101316.60
2023-04-09T23:55:45.484Z,101321.20
